Time;durP1;ratioP1;P1;durP2;ratioP2;P2;SDS_P1;SDS_P2;PMS_P1;PMS_P2;Temp;Humidity;BMP_temperature;BMP_pressure;BME280_temperature;BME280_humidity;BME280_pressure;Samples;Min_cycle;Max_cycle;Signal;HPM_P1;HPM_P2
2022/09/24 00:00:58;;;;;;;0.10;0.10;;;14.10;87.20;;;;;;4980148;28;20311;-75
2022/09/24 00:03:25;;;;;;;0.10;0.10;;;14.20;86.30;;;;;;4979019;28;20053;-74
2022/09/24 00:05:52;;;;;;;0.20;0.20;;;14.40;87.00;;;;;;4979848;28;20173;-75
2022/09/24 00:08:19;;;;;;;0.00;0.00;;;14.40;84.80;;;;;;4979159;28;20101;-75
2022/09/24 00:10:46;;;;;;;0.00;0.00;;;14.50;85.80;;;;;;4978891;28;20045;-74
2022/09/24 00:13:16;;;;;;;0.00;0.00;;;14.60;85.80;;;;;;4978860;28;20031;-74
2022/09/24 00:15:48;;;;;;;0.25;0.25;;;14.70;85.80;;;;;;4962613;28;20045;-74
2022/09/24 00:18:16;;;;;;;0.10;0.10;;;14.70;85.80;;;;;;4978674;28;20043;-74
2022/09/24 00:20:42;;;;;;;0.22;0.22;;;14.70;85.80;;;;;;4979695;28;20147;-74
2022/09/24 00:23:10;;;;;;;0.08;0.08;;;14.80;85.50;;;;;;4962206;28;20089;-74
2022/09/24 00:28:31;;;;;;;0.10;0.10;;;14.70;83.50;;;;;;4979752;28;20128;-74
2022/09/24 00:30:59;;;;;;;0.10;0.10;;;14.70;84.90;;;;;;4979612;28;20370;-74
2022/09/24 00:33:27;;;;;;;0.47;0.47;;;14.60;85.00;;;;;;4978394;28;20042;-74
2022/09/24 00:36:01;;;;;;;0.35;0.35;;;14.70;84.60;;;;;;4978348;28;20085;-74
2022/09/24 00:38:28;;;;;;;0.25;0.17;;;14.60;84.40;;;;;;4978869;28;20027;-74
2022/09/24 00:40:54;;;;;;;0.03;0.03;;;14.50;85.20;;;;;;4978363;28;20106;-74
2022/09/24 00:43:25;;;;;;;0.00;0.00;;;14.40;84.80;;;;;;4946303;28;20035;-74
2022/09/24 00:46:16;;;;;;;0.00;0.00;;;14.40;85.80;;;;;;4978064;28;20042;-74
2022/09/24 00:48:43;;;;;;;0.10;0.10;;;14.40;86.20;;;;;;4978272;28;20519;-74
2022/09/24 00:51:13;;;;;;;0.20;0.20;;;14.40;85.00;;;;;;4978195;28;20343;-74
2022/09/24 00:53:40;;;;;;;1.55;0.85;;;14.50;86.40;;;;;;4978079;28;20319;-74
2022/09/24 00:56:10;;;;;;;0.17;0.17;;;14.50;83.00;;;;;;4979066;28;20090;-74
2022/09/24 00:58:36;;;;;;;0.00;0.00;;;14.60;84.70;;;;;;4961935;28;20113;-74
2022/09/24 01:01:06;;;;;;;0.10;0.10;;;14.60;84.50;;;;;;4978973;28;20097;-74
2022/09/24 01:03:40;;;;;;;0.00;0.00;;;14.60;84.80;;;;;;4977865;28;20035;-74
2022/09/24 01:06:10;;;;;;;0.00;0.00;;;14.60;83.90;;;;;;4978970;28;20300;-75
2022/09/24 01:08:36;;;;;;;0.40;0.40;;;14.60;83.60;;;;;;4978948;28;20426;-75
2022/09/24 01:11:34;;;;;;;0.10;0.10;;;14.70;83.30;;;;;;4978778;28;20034;-74
2022/09/24 01:14:31;;;;;;;0.28;0.28;;;14.60;83.80;;;;;;4961795;28;20386;-74
2022/09/24 01:17:18;;;;;;;;;;;14.60;85.30;;;;;;4978376;28;20335;-74
2022/09/24 01:20:06;;;;;;;0.00;0.00;;;14.50;83.30;;;;;;4977855;28;20450;-74
2022/09/24 01:22:56;;;;;;;0.17;0.17;;;14.40;83.00;;;;;;4978540;28;20380;-74
2022/09/24 01:25:31;;;;;;;0.10;0.10;;;14.40;82.30;;;;;;4978497;28;20039;-74
2022/09/24 01:28:14;;;;;;;0.20;0.20;;;14.40;83.80;;;;;;4978358;28;20043;-74
2022/09/24 01:30:41;;;;;;;0.00;0.00;;;14.40;85.00;;;;;;4978484;28;20030;-74
2022/09/24 01:33:12;;;;;;;0.00;0.00;;;14.50;84.00;;;;;;4978237;28;20039;-74
2022/09/24 01:35:45;;;;;;;0.00;0.00;;;14.60;84.20;;;;;;4961679;28;20366;-74
2022/09/24 01:38:24;;;;;;;0.00;0.00;;;14.50;83.10;;;;;;4978440;28;20053;-74
2022/09/24 01:40:53;;;;;;;0.00;0.00;;;14.50;82.50;;;;;;4977429;28;20031;-74
2022/09/24 01:43:24;;;;;;;0.00;0.00;;;14.50;83.10;;;;;;4977336;28;20058;-74
2022/09/24 01:45:51;;;;;;;0.10;0.10;;;14.50;82.40;;;;;;4977172;28;20042;-74
2022/09/24 01:48:20;;;;;;;0.00;0.00;;;14.60;83.00;;;;;;4976593;28;20038;-74
2022/09/24 01:51:37;;;;;;;0.65;0.22;;;14.50;82.90;;;;;;4977018;28;20054;-74
2022/09/24 01:54:08;;;;;;;0.00;0.00;;;14.50;82.30;;;;;;4966439;28;20082;-74
2022/09/24 01:57:06;;;;;;;0.00;0.00;;;14.50;84.10;;;;;;4978219;28;20486;-74
2022/09/24 01:59:54;;;;;;;0.00;0.00;;;14.50;83.10;;;;;;4976761;28;20125;-74
2022/09/24 02:02:35;;;;;;;0.47;0.47;;;14.50;83.00;;;;;;4976943;28;20423;-74
2022/09/24 02:05:16;;;;;;;0.10;0.10;;;14.50;83.10;;;;;;4978001;28;20039;-75
2022/09/24 02:07:50;;;;;;;0.10;0.10;;;14.40;84.20;;;;;;4977503;28;20043;-74
2022/09/24 02:10:19;;;;;;;0.10;0.10;;;14.40;84.40;;;;;;4977636;28;20375;-74
2022/09/24 02:12:51;;;;;;;0.00;0.00;;;14.30;84.30;;;;;;4976864;28;20065;-74
2022/09/24 02:15:31;;;;;;;0.52;0.52;;;14.30;84.20;;;;;;4977821;28;20042;-74
2022/09/24 02:18:01;;;;;;;0.00;0.00;;;14.30;84.70;;;;;;4976747;28;20410;-74
2022/09/24 02:20:29;;;;;;;0.08;0.08;;;14.30;84.20;;;;;;4976758;28;20114;-74
2022/09/24 02:22:56;;;;;;;0.13;0.10;;;14.30;84.00;;;;;;4976520;28;20031;-74
2022/09/24 02:25:57;;;;;;;0.20;0.20;;;14.30;84.60;;;;;;4976626;28;20039;-74
2022/09/24 02:28:24;;;;;;;0.00;0.00;;;14.20;83.90;;;;;;4976422;28;20070;-74
2022/09/24 02:31:02;;;;;;;0.22;0.22;;;14.20;83.40;;;;;;4976612;28;20304;-74
2022/09/24 02:36:16;;;;;;;0.13;0.13;;;14.20;82.90;;;;;;4976842;28;20050;-74
2022/09/24 02:38:42;;;;;;;0.00;0.00;;;14.20;83.50;;;;;;4977705;28;20081;-74
2022/09/24 02:41:09;;;;;;;0.10;0.10;;;14.20;84.20;;;;;;4960606;28;20089;-74
2022/09/24 02:43:35;;;;;;;0.00;0.00;;;14.20;84.50;;;;;;4976459;28;20035;-74
2022/09/24 02:46:01;;;;;;;0.20;0.20;;;14.30;84.50;;;;;;4976536;28;20058;-74
2022/09/24 02:48:27;;;;;;;0.00;0.00;;;14.30;83.90;;;;;;4976588;28;20034;-74
2022/09/24 02:50:53;;;;;;;0.10;0.10;;;14.30;83.40;;;;;;4976460;28;20027;-74
2022/09/24 02:53:18;;;;;;;0.20;0.20;;;14.30;81.40;;;;;;4976429;28;20419;-74
2022/09/24 02:55:44;;;;;;;0.20;0.20;;;14.30;82.40;;;;;;4960286;28;20038;-74
2022/09/24 02:58:10;;;;;;;0.00;0.00;;;14.40;82.10;;;;;;4976421;28;20065;-74
2022/09/24 03:00:36;;;;;;;0.65;0.65;;;14.40;83.00;;;;;;4978000;28;20104;-74
2022/09/24 03:03:02;;;;;;;0.00;0.00;;;14.40;83.30;;;;;;4963910;28;20031;-74
2022/09/24 03:05:27;;;;;;;0.20;0.20;;;14.50;83.20;;;;;;4963930;28;20027;-75
2022/09/24 03:07:53;;;;;;;0.10;0.10;;;14.50;83.30;;;;;;4980077;28;20035;-74
2022/09/24 03:10:19;;;;;;;0.10;0.10;;;14.40;83.20;;;;;;4963869;28;20042;-75
2022/09/24 03:12:45;;;;;;;0.00;0.00;;;14.40;84.10;;;;;;4979981;28;20038;-74
2022/09/24 03:15:11;;;;;;;0.10;0.10;;;14.30;84.40;;;;;;4979931;28;20077;-74
2022/09/24 03:17:37;;;;;;;0.77;0.60;;;14.30;83.70;;;;;;4979886;28;20034;-74
2022/09/24 03:20:03;;;;;;;0.00;0.00;;;14.30;84.00;;;;;;4979888;28;20041;-74
2022/09/24 03:22:29;;;;;;;0.05;0.05;;;14.30;84.70;;;;;;4979704;28;20094;-74
2022/09/24 03:24:55;;;;;;;0.20;0.20;;;14.20;84.50;;;;;;4979777;28;20422;-74
2022/09/24 03:27:20;;;;;;;0.10;0.10;;;14.30;83.50;;;;;;4963457;28;20075;-74
2022/09/24 03:32:32;;;;;;;0.30;0.30;;;14.20;85.10;;;;;;4980125;28;20046;-74
2022/09/24 03:35:00;;;;;;;0.22;0.22;;;14.10;85.40;;;;;;4979781;28;20030;-74
2022/09/24 03:37:26;;;;;;;0.10;0.10;;;14.10;85.50;;;;;;4979594;28;20035;-74
2022/09/24 03:39:52;;;;;;;0.00;0.00;;;14.10;85.30;;;;;;4963499;28;20027;-74
2022/09/24 03:42:17;;;;;;;0.30;0.30;;;14.10;85.60;;;;;;4979330;28;20041;-74
2022/09/24 03:44:43;;;;;;;0.20;0.10;;;14.10;86.30;;;;;;4979577;28;20035;-74
2022/09/24 03:47:09;;;;;;;0.00;0.00;;;14.10;85.50;;;;;;4979309;28;20047;-74
2022/09/24 03:49:35;;;;;;;0.22;0.22;;;14.10;83.60;;;;;;4979601;28;20037;-74
2022/09/24 03:52:00;;;;;;;0.22;0.13;;;14.20;85.90;;;;;;4979294;28;20049;-74
2022/09/24 03:54:26;;;;;;;0.40;0.40;;;14.20;82.80;;;;;;4979272;28;20049;-74
2022/09/24 03:56:52;;;;;;;0.00;0.00;;;14.20;84.30;;;;;;4979288;28;20069;-74
2022/09/24 03:59:18;;;;;;;0.00;0.00;;;14.20;82.00;;;;;;4979207;28;20027;-74
2022/09/24 04:01:44;;;;;;;0.20;0.20;;;14.20;84.00;;;;;;4962929;28;20066;-74
2022/09/24 04:04:13;;;;;;;0.00;0.00;;;14.30;83.70;;;;;;4979119;28;20390;-74
2022/09/24 04:06:39;;;;;;;0.00;0.00;;;14.30;80.50;;;;;;4963195;28;20046;-74
2022/09/24 04:09:04;;;;;;;0.30;0.30;;;14.40;81.60;;;;;;4978907;28;20121;-74
2022/09/24 04:11:33;;;;;;;0.03;0.03;;;14.40;80.90;;;;;;4977816;28;20394;-74
2022/09/24 04:13:58;;;;;;;0.00;0.00;;;14.40;81.60;;;;;;4978974;28;20019;-74
2022/09/24 04:16:24;;;;;;;0.00;0.00;;;14.50;81.70;;;;;;4978733;28;20062;-74
2022/09/24 04:18:50;;;;;;;0.00;0.00;;;14.50;81.50;;;;;;4978734;28;20117;-74
2022/09/24 04:21:16;;;;;;;0.17;0.17;;;14.60;80.30;;;;;;4978717;28;20031;-74
2022/09/24 04:23:41;;;;;;;0.00;0.00;;;14.60;80.50;;;;;;4978785;28;20335;-74
2022/09/24 04:26:07;;;;;;;0.00;0.00;;;14.60;81.10;;;;;;4978608;28;20347;-74
2022/09/24 04:28:34;;;;;;;0.00;0.00;;;14.60;80.30;;;;;;4978606;28;20046;-74
2022/09/24 04:30:59;;;;;;;0.08;0.08;;;14.70;81.60;;;;;;4978661;28;20117;-74
2022/09/24 04:33:25;;;;;;;0.00;0.00;;;14.70;83.00;;;;;;4978449;28;20066;-74
2022/09/24 04:35:51;;;;;;;0.00;0.00;;;14.60;82.90;;;;;;4978457;28;20035;-74
2022/09/24 04:38:19;;;;;;;0.00;0.00;;;14.50;84.10;;;;;;4978343;28;20486;-74
2022/09/24 04:40:46;;;;;;;0.20;0.20;;;14.40;82.60;;;;;;4978531;28;20342;-74
2022/09/24 04:43:12;;;;;;;0.00;0.00;;;14.40;82.40;;;;;;4962445;28;20422;-74
2022/09/24 04:45:38;;;;;;;0.00;0.00;;;14.40;80.60;;;;;;4979252;28;20054;-74
2022/09/24 04:48:04;;;;;;;0.00;0.00;;;14.40;82.30;;;;;;4979354;28;20038;-74
2022/09/24 04:50:33;;;;;;;0.00;0.00;;;14.40;83.30;;;;;;4978023;28;20057;-75
2022/09/24 04:53:00;;;;;;;0.00;0.00;;;14.40;83.90;;;;;;4978327;28;20042;-74
2022/09/24 04:55:26;;;;;;;0.00;0.00;;;14.40;83.00;;;;;;4978089;28;20034;-74
2022/09/24 04:57:56;;;;;;;4.10;1.35;;;14.30;83.00;;;;;;4961806;28;20035;-74
2022/09/24 05:00:21;;;;;;;0.22;0.15;;;14.30;82.50;;;;;;4977858;28;20542;-74
2022/09/24 05:02:55;;;;;;;0.10;0.10;;;14.30;82.50;;;;;;4961946;28;20093;-75
2022/09/24 05:05:21;;;;;;;0.10;0.08;;;14.30;83.40;;;;;;4961829;28;20035;-74
2022/09/24 05:07:46;;;;;;;0.00;0.00;;;14.30;84.70;;;;;;4977821;28;20042;-75
2022/09/24 05:10:12;;;;;;;0.00;0.00;;;14.30;85.00;;;;;;4961649;28;20035;-75
2022/09/24 05:12:40;;;;;;;0.10;0.10;;;14.30;85.00;;;;;;4977654;28;20038;-74
2022/09/24 05:15:06;;;;;;;0.00;0.00;;;14.30;85.00;;;;;;4978716;28;20031;-74
2022/09/24 05:17:32;;;;;;;0.00;0.00;;;14.30;85.30;;;;;;4977662;28;20350;-74
2022/09/24 05:20:00;;;;;;;0.00;0.00;;;14.30;86.10;;;;;;4977577;28;20026;-74
2022/09/24 05:22:26;;;;;;;0.13;0.13;;;14.20;86.50;;;;;;4961715;28;20058;-74
2022/09/24 05:24:53;;;;;;;0.00;0.00;;;14.10;85.80;;;;;;4977681;28;20300;-74
2022/09/24 05:27:20;;;;;;;0.00;0.00;;;14.00;85.80;;;;;;4961511;28;20046;-74
2022/09/24 05:29:46;;;;;;;0.00;0.00;;;14.00;86.00;;;;;;4961702;28;20027;-74
2022/09/24 05:32:14;;;;;;;0.00;0.00;;;14.00;87.10;;;;;;4977407;28;20031;-74
2022/09/24 05:34:42;;;;;;;0.00;0.00;;;14.00;87.40;;;;;;4977408;28;20031;-74
2022/09/24 05:37:09;;;;;;;0.10;0.10;;;13.90;87.30;;;;;;4978284;28;20043;-74
2022/09/24 05:39:35;;;;;;;0.00;0.00;;;14.00;87.30;;;;;;4978339;28;20031;-74
2022/09/24 05:42:03;;;;;;;0.15;0.15;;;14.10;87.90;;;;;;4977236;28;20042;-74
2022/09/24 05:44:30;;;;;;;0.00;0.00;;;14.20;87.30;;;;;;4977329;28;20378;-74
2022/09/24 05:46:57;;;;;;;0.20;0.20;;;14.20;86.40;;;;;;4977097;28;20049;-74
2022/09/24 05:49:23;;;;;;;0.00;0.00;;;14.20;87.00;;;;;;4978531;28;20041;-74
2022/09/24 05:51:50;;;;;;;0.05;0.05;;;14.20;86.30;;;;;;4978013;28;20031;-74
2022/09/24 05:54:17;;;;;;;0.00;0.00;;;14.20;86.60;;;;;;4978347;28;20034;-74
2022/09/24 05:56:43;;;;;;;0.00;0.00;;;14.20;86.80;;;;;;4976842;28;20073;-74
2022/09/24 05:59:09;;;;;;;0.00;0.00;;;14.30;87.10;;;;;;4960761;28;20050;-74
2022/09/24 06:01:34;;;;;;;0.03;0.03;;;14.40;87.60;;;;;;4977963;28;20043;-74
2022/09/24 06:04:00;;;;;;;0.00;0.00;;;14.50;88.30;;;;;;4976843;28;20324;-74
2022/09/24 06:06:27;;;;;;;0.00;0.00;;;14.50;88.50;;;;;;4976768;28;20431;-74
2022/09/24 06:08:53;;;;;;;0.00;0.00;;;14.60;87.60;;;;;;4976839;28;20041;-74
2022/09/24 06:11:23;;;;;;;0.00;0.00;;;14.80;89.00;;;;;;4977779;28;20038;-74
2022/09/24 06:13:50;;;;;;;0.00;0.00;;;14.80;88.40;;;;;;4977776;28;20039;-74
2022/09/24 06:16:16;;;;;;;0.00;0.00;;;14.90;88.20;;;;;;4976811;28;20030;-74
2022/09/24 06:18:43;;;;;;;0.00;0.00;;;14.90;86.20;;;;;;4976655;28;20433;-74
2022/09/24 06:21:14;;;;;;;0.00;0.00;;;15.00;86.80;;;;;;4977660;28;20042;-74
2022/09/24 06:23:40;;;;;;;0.00;0.00;;;15.10;88.30;;;;;;4976642;28;20097;-74
2022/09/24 06:26:09;;;;;;;0.00;0.00;;;15.10;88.00;;;;;;4976663;28;20047;-74
2022/09/24 06:28:37;;;;;;;0.30;0.30;;;15.10;87.90;;;;;;4976495;28;20041;-74
2022/09/24 06:31:03;;;;;;;0.00;0.00;;;15.10;89.20;;;;;;4976721;28;20039;-73
2022/09/24 06:33:29;;;;;;;0.00;0.00;;;15.20;89.50;;;;;;4976690;28;20371;-74
2022/09/24 06:35:59;;;;;;;2.80;0.77;;;15.20;87.70;;;;;;4978871;28;20178;-74
2022/09/24 06:38:25;;;;;;;0.05;0.05;;;15.20;88.40;;;;;;4981400;28;20105;-74
2022/09/24 06:40:51;;;;;;;0.00;0.00;;;15.20;86.80;;;;;;4981338;28;20109;-78
2022/09/24 06:43:17;;;;;;;0.13;0.13;;;15.20;88.00;;;;;;4961662;28;20086;-80
2022/09/24 06:45:44;;;;;;;1.08;0.52;;;15.10;85.70;;;;;;4980142;28;20038;-79
2022/09/24 06:48:11;;;;;;;0.00;0.00;;;15.10;85.80;;;;;;4981040;28;20318;-80
2022/09/24 07:12:07;;;;;;;0.00;0.00;;;15.50;88.80;;;;;;4976549;28;20322;-79
2022/09/24 07:14:32;;;;;;;0.00;0.00;;;15.60;87.80;;;;;;4945010;29;20027;-75
2022/09/24 07:16:58;;;;;;;0.00;0.00;;;15.70;87.60;;;;;;4944563;29;20035;-79
2022/09/24 07:19:24;;;;;;;0.00;0.00;;;15.70;89.60;;;;;;4959617;28;20102;-77
2022/09/24 07:21:50;;;;;;;0.00;0.00;;;15.80;88.10;;;;;;4960826;28;20075;-77
2022/09/24 07:24:16;;;;;;;0.00;0.00;;;15.80;87.10;;;;;;4944459;29;20450;-76
2022/09/24 07:26:42;;;;;;;0.00;0.00;;;15.90;87.90;;;;;;4944248;29;20039;-77
2022/09/24 07:29:08;;;;;;;0.00;0.00;;;15.90;85.10;;;;;;4943890;29;20035;-74
2022/09/24 07:31:35;;;;;;;0.00;0.00;;;16.00;87.10;;;;;;4959347;28;20039;-77
2022/09/24 07:34:01;;;;;;;0.00;0.00;;;16.20;85.70;;;;;;5245130;23;20043;-77
2022/09/24 07:36:29;;;;;;;0.03;0.03;;;16.30;83.90;;;;;;4957738;28;20050;-77
2022/09/24 07:45:56;;;;;;;0.10;0.10;;;16.60;83.50;;;;;;4943853;28;20091;-77
2022/09/24 07:49:37;;;;;;;0.00;0.00;;;16.50;84.00;;;;;;4922615;29;20048;-74
2022/09/24 07:57:04;;;;;;;0.00;0.00;;;16.50;84.20;;;;;;4939197;29;20093;-75
2022/09/24 08:00:42;;;;;;;0.00;0.00;;;16.40;83.40;;;;;;4938002;29;20047;-76
2022/09/24 08:04:21;;;;;;;0.00;0.00;;;16.40;83.30;;;;;;4939322;29;20031;-77
2022/09/24 08:06:52;;;;;;;0.00;0.00;;;16.40;83.70;;;;;;4939492;29;20119;-75
2022/09/24 08:09:27;;;;;;;0.00;0.00;;;16.50;82.60;;;;;;4939516;29;20048;-75
2022/09/24 08:12:03;;;;;;;0.47;0.43;;;16.50;82.60;;;;;;4940388;29;20028;-75
2022/09/24 08:14:38;;;;;;;0.00;0.00;;;16.50;83.90;;;;;;4940186;29;20024;-74
2022/09/24 08:17:13;;;;;;;0.00;0.00;;;16.50;83.20;;;;;;4940032;29;20070;-74
2022/09/24 08:19:48;;;;;;;0.00;0.00;;;16.60;83.40;;;;;;4940328;29;20056;-74
2022/09/24 08:22:23;;;;;;;0.00;0.00;;;16.70;83.00;;;;;;4939756;29;20031;-74
2022/09/24 08:28:21;;;;;;;0.00;0.00;;;16.90;83.20;;;;;;4941221;29;20099;-74
2022/09/24 08:30:57;;;;;;;0.00;0.00;;;17.00;83.00;;;;;;4941137;29;20028;-74
2022/09/24 08:33:33;;;;;;;0.00;0.00;;;17.00;83.20;;;;;;4940065;29;20424;-74
2022/09/24 08:35:59;;;;;;;0.00;0.00;;;17.10;83.30;;;;;;4939802;29;20127;-74
2022/09/24 08:38:37;;;;;;;0.00;0.00;;;17.20;83.70;;;;;;4941022;29;20029;-74
2022/09/24 08:41:12;;;;;;;0.00;0.00;;;17.30;84.20;;;;;;4940195;29;20340;-74
2022/09/24 08:47:24;;;;;;;0.00;0.00;;;17.50;87.40;;;;;;4940985;29;20122;-74
2022/09/24 08:50:39;;;;;;;0.65;0.57;;;17.60;87.60;;;;;;4939442;29;20332;-74
2022/09/24 08:53:52;;;;;;;0.00;0.00;;;17.70;87.90;;;;;;4936298;29;20111;-74
2022/09/24 08:56:25;;;;;;;0.00;0.00;;;17.80;87.10;;;;;;4939250;29;20408;-74
2022/09/24 08:59:48;;;;;;;0.03;0.03;;;17.80;87.60;;;;;;4938804;29;20067;-74
2022/09/24 09:02:47;;;;;;;0.57;0.57;;;17.90;87.70;;;;;;4940408;29;20046;-74
2022/09/24 09:09:21;;;;;;;0.03;0.03;;;18.20;84.90;;;;;;4940893;29;20050;-74
2022/09/24 09:12:16;;;;;;;1.75;0.70;;;18.30;86.80;;;;;;4940288;29;20028;-74
2022/09/24 09:18:22;;;;;;;0.10;0.10;;;18.40;83.00;;;;;;4940560;29;20054;-74
2022/09/24 09:21:52;;;;;;;0.05;0.05;;;18.50;84.40;;;;;;4940108;29;20023;-74
2022/09/24 09:27:39;;;;;;;0.17;0.17;;;18.30;83.50;;;;;;4881840;29;20099;-74
2022/09/24 09:30:19;;;;;;;0.08;0.05;;;18.20;80.40;;;;;;4850881;29;20437;-75
2022/09/24 09:33:23;;;;;;;0.00;0.00;;;18.00;84.20;;;;;;4881643;29;20344;-75
2022/09/24 09:39:54;;;;;;;0.20;0.20;;;17.70;84.50;;;;;;4881731;29;20136;-74
2022/09/24 09:42:51;;;;;;;0.45;0.45;;;17.60;87.40;;;;;;4881372;29;20341;-74
2022/09/24 09:48:57;;;;;;;0.00;0.00;;;17.50;87.00;;;;;;4881570;29;19923;-74
2022/09/24 09:51:50;;;;;;;0.15;0.15;;;17.40;84.30;;;;;;4881461;29;20108;-74
2022/09/24 09:57:50;;;;;;;0.00;0.00;;;17.50;85.50;;;;;;4898738;29;20094;-74
2022/09/24 10:00:33;;;;;;;0.00;0.00;;;17.60;86.30;;;;;;4938524;29;20036;-74
2022/09/24 10:04:02;;;;;;;0.00;0.00;;;17.80;85.40;;;;;;4938489;29;20028;-75
2022/09/24 10:06:33;;;;;;;0.00;0.00;;;17.90;82.70;;;;;;4928067;29;20384;-74
2022/09/24 10:09:33;;;;;;;0.00;0.00;;;17.80;84.40;;;;;;4922254;29;20048;-74
2022/09/24 10:12:27;;;;;;;0.15;0.00;;;17.80;83.70;;;;;;4939376;29;20325;-74
2022/09/24 10:15:02;;;;;;;0.20;0.10;;;17.80;84.00;;;;;;4939122;29;20064;-74
2022/09/24 10:17:41;;;;;;;0.00;0.00;;;17.90;85.80;;;;;;4939410;29;20035;-74
2022/09/24 10:20:38;;;;;;;0.20;0.20;;;17.90;87.10;;;;;;4939198;29;20290;-74
2022/09/24 10:27:09;;;;;;;0.00;0.00;;;17.80;88.40;;;;;;4881043;29;20101;-74
2022/09/24 10:32:44;;;;;;;0.00;0.00;;;17.80;87.00;;;;;;4881125;29;20040;-74
2022/09/24 10:38:43;;;;;;;0.00;0.00;;;17.80;88.30;;;;;;4880696;29;20052;-74
2022/09/24 10:41:27;;;;;;;0.00;0.00;;;17.70;89.00;;;;;;4881019;29;20029;-74
2022/09/24 10:48:00;;;;;;;0.10;0.10;;;17.50;88.10;;;;;;4880923;29;20078;-74
2022/09/24 10:50:56;;;;;;;0.05;0.05;;;17.50;88.40;;;;;;4930175;29;20127;-74
2022/09/24 10:54:12;;;;;;;1.08;0.32;;;17.40;89.30;;;;;;4938055;29;20028;-74
2022/09/24 10:56:43;;;;;;;0.13;0.13;;;17.30;90.00;;;;;;4938937;29;20035;-74
2022/09/24 10:59:55;;;;;;;0.10;0.10;;;17.20;91.00;;;;;;4938930;29;20024;-74
2022/09/24 11:03:17;;;;;;;0.30;0.30;;;17.20;88.90;;;;;;4938004;29;20039;-74
2022/09/24 11:09:52;;;;;;;0.20;0.20;;;17.10;89.40;;;;;;4938776;29;20046;-74
2022/09/24 11:12:53;;;;;;;0.10;0.10;;;17.10;88.80;;;;;;4880561;29;20115;-74
2022/09/24 11:19:40;;;;;;;0.20;0.20;;;17.10;88.00;;;;;;4880736;29;20048;-74
2022/09/24 11:23:06;;;;;;;0.10;0.10;;;17.00;91.60;;;;;;4864022;29;20311;-74
2022/09/24 11:26:10;;;;;;;0.10;0.10;;;17.00;91.30;;;;;;4792359;29;20073;-74
2022/09/24 11:29:31;;;;;;;0.65;0.40;;;16.90;90.50;;;;;;4774602;30;20083;-74
2022/09/24 11:33:00;;;;;;;0.00;0.00;;;16.80;91.50;;;;;;4940387;29;20072;-74
2022/09/24 11:39:09;;;;;;;0.25;0.25;;;16.70;93.00;;;;;;4865295;29;20048;-74
2022/09/24 11:42:05;;;;;;;0.03;0.03;;;16.60;94.30;;;;;;4865143;29;20052;-74
2022/09/24 11:48:55;;;;;;;0.28;0.28;;;16.40;94.10;;;;;;4864938;29;20056;-74
2022/09/24 11:52:06;;;;;;;0.00;0.00;;;16.50;95.20;;;;;;4820501;29;20343;-74
2022/09/24 11:58:26;;;;;;;0.00;0.00;;;16.60;91.40;;;;;;4828273;29;20053;-74
2022/09/24 12:01:54;;;;;;;0.00;0.00;;;16.70;93.20;;;;;;4827770;29;20097;-74
2022/09/24 12:07:56;;;;;;;0.22;0.08;;;16.90;95.90;;;;;;4755993;30;20059;-74
2022/09/24 12:10:52;;;;;;;0.00;0.00;;;16.90;90.20;;;;;;4813466;29;20190;-74
2022/09/24 12:13:40;;;;;;;0.40;0.40;;;16.90;91.90;;;;;;4827564;29;20057;-74
2022/09/24 12:16:15;;;;;;;0.00;0.00;;;16.90;92.20;;;;;;4827457;29;20372;-74
2022/09/24 12:19:31;;;;;;;0.20;0.20;;;16.80;90.30;;;;;;4813207;29;20436;-74
2022/09/24 12:22:08;;;;;;;0.20;0.20;;;16.80;89.70;;;;;;4827438;29;20038;-74
2022/09/24 12:27:56;;;;;;;0.03;0.03;;;16.80;91.30;;;;;;4882921;29;20060;-74
2022/09/24 12:37:05;;;;;;;0.15;0.15;;;17.20;89.30;;;;;;4882910;29;20065;-74
2022/09/24 12:39:55;;;;;;;0.82;0.35;;;17.20;90.20;;;;;;4905025;29;20175;-75
2022/09/24 12:42:53;;;;;;;0.00;0.00;;;17.30;90.20;;;;;;4940865;29;20043;-74
2022/09/24 12:48:51;;;;;;;0.00;0.00;;;17.30;90.00;;;;;;4940932;29;20067;-74
2022/09/24 12:51:46;;;;;;;0.00;0.00;;;17.20;90.40;;;;;;4939502;29;20099;-75
2022/09/24 12:57:47;;;;;;;0.00;0.00;;;17.10;90.50;;;;;;4940894;29;20111;-74
2022/09/24 13:00:46;;;;;;;0.00;0.00;;;17.00;90.70;;;;;;4939372;29;20050;-74
2022/09/24 13:07:12;;;;;;;0.25;0.25;;;16.90;88.80;;;;;;4940679;29;20099;-74
2022/09/24 13:09:50;;;;;;;0.17;0.15;;;16.90;90.10;;;;;;4940240;29;20046;-74
2022/09/24 13:12:31;;;;;;;0.05;0.05;;;16.90;90.00;;;;;;4939155;29;20419;-74
2022/09/24 13:18:32;;;;;;;0.10;0.10;;;17.00;90.70;;;;;;4940352;29;20050;-74
2022/09/24 13:21:26;;;;;;;0.00;0.00;;;17.10;90.00;;;;;;4923368;29;20087;-74
2022/09/24 13:31:34;;;;;;;0.30;0.13;;;17.00;92.10;;;;;;4844751;29;20129;-74
2022/09/24 13:37:37;;;;;;;0.73;0.38;;;16.90;92.50;;;;;;4844906;29;20070;-74
2022/09/24 13:47:42;;;;;;;0.10;0.10;;;16.90;90.00;;;;;;4841560;29;20417;-74
2022/09/24 13:50:28;;;;;;;0.00;0.00;;;16.80;90.70;;;;;;4900004;29;20040;-74
2022/09/24 13:57:12;;;;;;;0.00;0.00;;;16.50;91.50;;;;;;4863125;29;20442;-74
2022/09/24 13:59:47;;;;;;;0.50;0.50;;;16.40;92.90;;;;;;4862797;29;20053;-74
2022/09/24 14:03:26;;;;;;;0.93;0.88;;;16.30;92.50;;;;;;4889341;29;20052;-74
2022/09/24 14:07:05;;;;;;;1.10;0.75;;;16.30;91.50;;;;;;4889712;29;20079;-74
2022/09/24 14:10:49;;;;;;;1.00;0.70;;;16.20;92.80;;;;;;4939373;29;20032;-74
2022/09/24 14:17:30;;;;;;;0.08;0.08;;;16.10;93.70;;;;;;4939742;29;20431;-74
2022/09/24 14:20:05;;;;;;;0.05;0.05;;;16.00;93.00;;;;;;4938206;29;20031;-74
2022/09/24 14:22:43;;;;;;;0.10;0.10;;;15.80;93.00;;;;;;4939029;29;20424;-74
2022/09/24 14:28:40;;;;;;;0.10;0.10;;;15.40;95.70;;;;;;4939426;29;20167;-74
2022/09/24 14:31:15;;;;;;;0.00;0.00;;;15.20;96.60;;;;;;4938230;29;20028;-74
2022/09/24 14:37:35;;;;;;;0.17;0.17;;;14.80;98.00;;;;;;4939353;28;20409;-74
2022/09/24 14:40:16;;;;;;;0.45;0.45;;;14.60;98.00;;;;;;4939150;29;20156;-75
2022/09/24 14:43:16;;;;;;;0.00;0.00;;;14.40;98.00;;;;;;4939088;29;20452;-75
2022/09/24 14:46:32;;;;;;;1.40;1.30;;;14.30;98.00;;;;;;4933413;29;20050;-75
2022/09/24 14:49:23;;;;;;;0.00;0.00;;;14.20;98.00;;;;;;4938993;29;20040;-75
2022/09/24 14:52:01;;;;;;;0.15;0.15;;;14.30;98.00;;;;;;4938979;29;20031;-74
2022/09/24 14:57:58;;;;;;;0.20;0.20;;;14.30;98.00;;;;;;4943133;29;20063;-74
2022/09/24 15:00:47;;;;;;;0.00;0.00;;;14.30;98.00;;;;;;4941597;29;20087;-74
2022/09/24 15:06:57;;;;;;;0.00;0.00;;;14.50;98.00;;;;;;4884511;29;20072;-74
2022/09/24 15:09:48;;;;;;;0.10;0.10;;;14.70;98.00;;;;;;4868763;29;20069;-74
2022/09/24 15:12:32;;;;;;;0.08;0.08;;;14.80;98.00;;;;;;4884186;29;20109;-74
2022/09/24 15:18:29;;;;;;;0.20;0.10;;;14.90;98.00;;;;;;4884446;29;20056;-74
2022/09/24 15:21:07;;;;;;;0.23;0.23;;;15.00;98.00;;;;;;4868353;29;20068;-74
2022/09/24 15:27:41;;;;;;;0.00;0.00;;;14.90;98.00;;;;;;4884004;29;20052;-74
2022/09/24 15:30:28;;;;;;;0.10;0.10;;;14.90;98.00;;;;;;4865194;29;20095;-74
2022/09/24 15:33:09;;;;;;;0.03;0.03;;;14.80;98.00;;;;;;4865385;29;20038;-74
2022/09/24 15:35:35;;;;;;;0.00;0.00;;;14.80;98.00;;;;;;4866447;29;20041;-74
2022/09/24 15:38:15;;;;;;;0.22;0.22;;;14.70;98.00;;;;;;4886709;29;20064;-74
2022/09/24 15:40:52;;;;;;;0.20;0.10;;;14.60;98.00;;;;;;4902345;29;20033;-74
2022/09/24 15:43:31;;;;;;;0.73;0.57;;;14.50;98.00;;;;;;4887089;29;20056;-74
2022/09/24 15:45:56;;;;;;;0.10;0.00;;;14.60;98.00;;;;;;4886478;29;20371;-74
2022/09/24 15:48:34;;;;;;;0.45;0.45;;;14.60;98.00;;;;;;4886491;29;20041;-74
2022/09/24 15:51:10;;;;;;;0.32;0.32;;;14.70;98.00;;;;;;4886566;29;20132;-74
2022/09/24 15:56:51;;;;;;;0.17;0.17;;;14.70;98.00;;;;;;4902192;29;20218;-74
2022/09/24 15:59:26;;;;;;;0.20;0.20;;;14.70;98.00;;;;;;4886868;29;20089;-74
2022/09/24 16:02:18;;;;;;;0.00;0.00;;;14.70;98.00;;;;;;4902037;29;20032;-74
2022/09/24 16:08:22;;;;;;;0.17;0.17;;;14.50;98.00;;;;;;4940307;29;20087;-74
2022/09/24 16:10:56;;;;;;;0.10;0.10;;;14.50;98.00;;;;;;4941461;29;20027;-74
2022/09/24 16:13:33;;;;;;;0.00;0.00;;;14.50;98.00;;;;;;4924180;29;20031;-74
2022/09/24 16:15:59;;;;;;;0.00;0.00;;;14.50;98.00;;;;;;4940457;29;20044;-74
2022/09/24 16:19:21;;;;;;;0.10;0.10;;;14.40;98.00;;;;;;4941549;29;20376;-74
2022/09/24 16:21:58;;;;;;;0.10;0.10;;;14.40;98.00;;;;;;4941197;29;20130;-74
2022/09/24 16:28:10;;;;;;;0.28;0.20;;;14.40;98.00;;;;;;4941499;29;20454;-74
2022/09/24 16:30:45;;;;;;;0.00;0.00;;;14.40;98.00;;;;;;4941053;29;20051;-74
2022/09/24 16:33:20;;;;;;;0.00;0.00;;;14.40;98.00;;;;;;4940165;29;20384;-74
2022/09/24 16:39:23;;;;;;;0.10;0.10;;;14.30;98.00;;;;;;4941000;29;20090;-74
2022/09/24 16:41:58;;;;;;;0.20;0.20;;;14.30;98.00;;;;;;4939729;29;20078;-74
2022/09/24 16:47:58;;;;;;;0.13;0.13;;;14.20;98.00;;;;;;4940866;29;20063;-74
2022/09/24 16:50:33;;;;;;;0.38;0.38;;;14.10;98.00;;;;;;4939780;29;20034;-74
2022/09/24 16:53:08;;;;;;;0.00;0.00;;;14.00;98.00;;;;;;4939636;29;20046;-74
2022/09/24 16:59:12;;;;;;;0.32;0.32;;;13.80;98.00;;;;;;4940920;29;20051;-75